sensor_id;sensor_type;location;lat;lon;timestamp;temperature;humidity
13113;DHT22;6622;49.752;6.100;2022-11-27T00:00:13;6.70;99.90
13113;DHT22;6622;49.752;6.100;2022-11-27T00:02:40;6.70;99.90
13113;DHT22;6622;49.752;6.100;2022-11-27T00:05:06;6.70;99.90
13113;DHT22;6622;49.752;6.100;2022-11-27T00:07:33;6.60;99.90
13113;DHT22;6622;49.752;6.100;2022-11-27T00:10:00;6.50;99.90
13113;DHT22;6622;49.752;6.100;2022-11-27T00:12:26;6.50;99.90
13113;DHT22;6622;49.752;6.100;2022-11-27T00:14:53;6.50;99.90
13113;DHT22;6622;49.752;6.100;2022-11-27T00:17:19;6.60;99.90
13113;DHT22;6622;49.752;6.100;2022-11-27T00:19:47;6.50;99.90
13113;DHT22;6622;49.752;6.100;2022-11-27T00:22:13;6.50;99.90
13113;DHT22;6622;49.752;6.100;2022-11-27T00:24:42;6.60;99.90
13113;DHT22;6622;49.752;6.100;2022-11-27T00:27:07;6.50;99.90
13113;DHT22;6622;49.752;6.100;2022-11-27T00:29:34;6.50;99.90
13113;DHT22;6622;49.752;6.100;2022-11-27T00:32:01;6.50;99.90
13113;DHT22;6622;49.752;6.100;2022-11-27T00:34:28;6.50;99.90
13113;DHT22;6622;49.752;6.100;2022-11-27T00:36:55;6.50;99.90
13113;DHT22;6622;49.752;6.100;2022-11-27T00:39:21;6.60;99.90
13113;DHT22;6622;49.752;6.100;2022-11-27T00:41:48;6.50;99.90
13113;DHT22;6622;49.752;6.100;2022-11-27T00:44:15;6.50;99.90
13113;DHT22;6622;49.752;6.100;2022-11-27T00:46:41;6.60;99.90
13113;DHT22;6622;49.752;6.100;2022-11-27T00:49:09;6.80;99.90
13113;DHT22;6622;49.752;6.100;2022-11-27T00:51:34;6.80;99.90
13113;DHT22;6622;49.752;6.100;2022-11-27T00:54:02;6.90;99.90
13113;DHT22;6622;49.752;6.100;2022-11-27T00:56:29;6.90;99.90
13113;DHT22;6622;49.752;6.100;2022-11-27T00:58:55;6.90;99.90
13113;DHT22;6622;49.752;6.100;2022-11-27T01:01:26;6.70;99.90
13113;DHT22;6622;49.752;6.100;2022-11-27T01:03:51;6.80;99.90
13113;DHT22;6622;49.752;6.100;2022-11-27T01:06:18;6.80;99.90
13113;DHT22;6622;49.752;6.100;2022-11-27T01:08:46;6.90;99.90
13113;DHT22;6622;49.752;6.100;2022-11-27T01:11:20;6.90;99.90
13113;DHT22;6622;49.752;6.100;2022-11-27T01:13:42;6.90;99.90
13113;DHT22;6622;49.752;6.100;2022-11-27T01:16:09;6.90;99.90
13113;DHT22;6622;49.752;6.100;2022-11-27T01:18:35;7.00;99.90
13113;DHT22;6622;49.752;6.100;2022-11-27T01:21:02;7.00;99.90
13113;DHT22;6622;49.752;6.100;2022-11-27T01:23:28;7.00;99.90
13113;DHT22;6622;49.752;6.100;2022-11-27T01:25:55;7.00;99.90
13113;DHT22;6622;49.752;6.100;2022-11-27T01:28:22;7.10;99.90
13113;DHT22;6622;49.752;6.100;2022-11-27T01:30:48;7.10;99.90
13113;DHT22;6622;49.752;6.100;2022-11-27T01:33:16;6.90;99.90
13113;DHT22;6622;49.752;6.100;2022-11-27T01:35:42;6.90;99.90
13113;DHT22;6622;49.752;6.100;2022-11-27T01:38:09;6.90;99.90
13113;DHT22;6622;49.752;6.100;2022-11-27T01:40:36;6.90;99.90
13113;DHT22;6622;49.752;6.100;2022-11-27T01:43:03;6.90;99.90
13113;DHT22;6622;49.752;6.100;2022-11-27T01:45:29;6.90;99.90
13113;DHT22;6622;49.752;6.100;2022-11-27T01:47:57;7.00;99.90
13113;DHT22;6622;49.752;6.100;2022-11-27T01:50:30;7.00;99.90
13113;DHT22;6622;49.752;6.100;2022-11-27T01:53:04;7.00;99.90
13113;DHT22;6622;49.752;6.100;2022-11-27T01:55:36;7.00;99.90
13113;DHT22;6622;49.752;6.100;2022-11-27T01:58:08;7.00;99.90
13113;DHT22;6622;49.752;6.100;2022-11-27T02:00:33;6.90;99.90
13113;DHT22;6622;49.752;6.100;2022-11-27T02:03:00;6.90;99.90
13113;DHT22;6622;49.752;6.100;2022-11-27T02:05:27;6.80;99.90
13113;DHT22;6622;49.752;6.100;2022-11-27T02:07:54;6.80;99.90
13113;DHT22;6622;49.752;6.100;2022-11-27T02:10:20;6.80;99.90
13113;DHT22;6622;49.752;6.100;2022-11-27T02:12:50;6.80;99.90
13113;DHT22;6622;49.752;6.100;2022-11-27T02:15:19;6.70;99.90
13113;DHT22;6622;49.752;6.100;2022-11-27T02:17:46;6.60;99.90
13113;DHT22;6622;49.752;6.100;2022-11-27T02:23:01;6.50;99.90
13113;DHT22;6622;49.752;6.100;2022-11-27T02:28:20;6.50;99.90
13113;DHT22;6622;49.752;6.100;2022-11-27T02:30:45;6.50;99.90
13113;DHT22;6622;49.752;6.100;2022-11-27T02:33:10;6.50;99.90
13113;DHT22;6622;49.752;6.100;2022-11-27T02:35:44;6.50;99.90
13113;DHT22;6622;49.752;6.100;2022-11-27T02:38:16;6.50;99.90
13113;DHT22;6622;49.752;6.100;2022-11-27T02:41:39;6.50;99.90
13113;DHT22;6622;49.752;6.100;2022-11-27T02:43:35;6.50;99.90
13113;DHT22;6622;49.752;6.100;2022-11-27T02:46:01;6.60;99.90
13113;DHT22;6622;49.752;6.100;2022-11-27T02:48:32;6.60;99.90
13113;DHT22;6622;49.752;6.100;2022-11-27T02:50:57;6.50;99.90
13113;DHT22;6622;49.752;6.100;2022-11-27T02:53:33;6.40;99.90
13113;DHT22;6622;49.752;6.100;2022-11-27T02:55:58;6.50;99.90
13113;DHT22;6622;49.752;6.100;2022-11-27T02:58:26;6.50;99.90
13113;DHT22;6622;49.752;6.100;2022-11-27T03:00:52;6.40;99.90
13113;DHT22;6622;49.752;6.100;2022-11-27T03:03:23;6.50;99.90
13113;DHT22;6622;49.752;6.100;2022-11-27T03:05:49;6.40;99.90
13113;DHT22;6622;49.752;6.100;2022-11-27T03:08:20;6.40;99.90
13113;DHT22;6622;49.752;6.100;2022-11-27T03:10:55;6.30;99.90
13113;DHT22;6622;49.752;6.100;2022-11-27T03:13:19;6.30;99.90
13113;DHT22;6622;49.752;6.100;2022-11-27T03:18:39;6.40;99.90
13113;DHT22;6622;49.752;6.100;2022-11-27T03:21:08;6.40;99.90
13113;DHT22;6622;49.752;6.100;2022-11-27T03:23:32;6.40;99.90
13113;DHT22;6622;49.752;6.100;2022-11-27T03:25:58;6.40;99.90
13113;DHT22;6622;49.752;6.100;2022-11-27T03:28:25;6.30;99.90
13113;DHT22;6622;49.752;6.100;2022-11-27T03:30:51;6.30;99.90
13113;DHT22;6622;49.752;6.100;2022-11-27T03:33:19;6.30;99.90
13113;DHT22;6622;49.752;6.100;2022-11-27T03:35:45;6.30;99.90
13113;DHT22;6622;49.752;6.100;2022-11-27T03:38:12;6.20;99.90
13113;DHT22;6622;49.752;6.100;2022-11-27T03:40:52;6.30;99.90
13113;DHT22;6622;49.752;6.100;2022-11-27T03:43:21;6.30;99.90
13113;DHT22;6622;49.752;6.100;2022-11-27T03:45:51;6.40;99.90
13113;DHT22;6622;49.752;6.100;2022-11-27T03:51:05;6.30;99.90
13113;DHT22;6622;49.752;6.100;2022-11-27T03:53:35;6.30;99.90
13113;DHT22;6622;49.752;6.100;2022-11-27T04:01:10;6.30;99.90
13113;DHT22;6622;49.752;6.100;2022-11-27T04:03:36;6.30;99.90
13113;DHT22;6622;49.752;6.100;2022-11-27T04:06:03;6.20;99.90
13113;DHT22;6622;49.752;6.100;2022-11-27T04:08:30;6.10;99.90
13113;DHT22;6622;49.752;6.100;2022-11-27T04:10:57;6.10;99.90
13113;DHT22;6622;49.752;6.100;2022-11-27T04:13:23;6.10;99.90
13113;DHT22;6622;49.752;6.100;2022-11-27T04:15:50;6.00;99.90
13113;DHT22;6622;49.752;6.100;2022-11-27T04:18:17;6.00;99.90
13113;DHT22;6622;49.752;6.100;2022-11-27T04:20:43;6.00;99.90
13113;DHT22;6622;49.752;6.100;2022-11-27T04:23:10;6.00;99.90
13113;DHT22;6622;49.752;6.100;2022-11-27T04:25:36;5.90;99.90
13113;DHT22;6622;49.752;6.100;2022-11-27T04:28:03;6.00;99.90
13113;DHT22;6622;49.752;6.100;2022-11-27T04:30:30;6.00;99.90
13113;DHT22;6622;49.752;6.100;2022-11-27T04:32:56;6.00;99.90
13113;DHT22;6622;49.752;6.100;2022-11-27T04:35:23;6.00;99.90
13113;DHT22;6622;49.752;6.100;2022-11-27T04:37:50;6.10;99.90
13113;DHT22;6622;49.752;6.100;2022-11-27T04:40:16;6.00;99.90
13113;DHT22;6622;49.752;6.100;2022-11-27T04:42:43;6.00;99.90
13113;DHT22;6622;49.752;6.100;2022-11-27T04:45:10;5.90;99.90
13113;DHT22;6622;49.752;6.100;2022-11-27T04:47:36;6.00;99.90
13113;DHT22;6622;49.752;6.100;2022-11-27T04:50:03;6.10;99.90
13113;DHT22;6622;49.752;6.100;2022-11-27T04:52:29;6.10;99.90
13113;DHT22;6622;49.752;6.100;2022-11-27T04:54:56;6.00;99.90
13113;DHT22;6622;49.752;6.100;2022-11-27T04:57:23;6.00;99.90
13113;DHT22;6622;49.752;6.100;2022-11-27T04:59:50;5.90;99.90
13113;DHT22;6622;49.752;6.100;2022-11-27T05:02:17;5.90;99.90
13113;DHT22;6622;49.752;6.100;2022-11-27T05:04:43;5.90;99.90
13113;DHT22;6622;49.752;6.100;2022-11-27T05:07:11;5.90;99.90
13113;DHT22;6622;49.752;6.100;2022-11-27T05:09:37;5.90;99.90
13113;DHT22;6622;49.752;6.100;2022-11-27T05:12:04;5.90;99.90
13113;DHT22;6622;49.752;6.100;2022-11-27T05:14:31;6.00;99.90
13113;DHT22;6622;49.752;6.100;2022-11-27T05:16:58;6.00;99.90
13113;DHT22;6622;49.752;6.100;2022-11-27T05:19:25;5.90;99.90
13113;DHT22;6622;49.752;6.100;2022-11-27T05:21:51;5.90;99.90
13113;DHT22;6622;49.752;6.100;2022-11-27T05:24:18;5.90;99.90
13113;DHT22;6622;49.752;6.100;2022-11-27T05:26:44;5.90;99.90
13113;DHT22;6622;49.752;6.100;2022-11-27T05:29:11;5.90;99.90
13113;DHT22;6622;49.752;6.100;2022-11-27T05:31:37;5.80;99.90
13113;DHT22;6622;49.752;6.100;2022-11-27T05:34:04;5.90;99.90
13113;DHT22;6622;49.752;6.100;2022-11-27T05:36:30;6.00;99.90
13113;DHT22;6622;49.752;6.100;2022-11-27T05:38:57;6.00;99.90
13113;DHT22;6622;49.752;6.100;2022-11-27T05:41:23;5.90;99.90
13113;DHT22;6622;49.752;6.100;2022-11-27T05:43:50;5.90;99.90
13113;DHT22;6622;49.752;6.100;2022-11-27T05:46:18;5.90;99.90
13113;DHT22;6622;49.752;6.100;2022-11-27T05:48:44;5.80;99.90
13113;DHT22;6622;49.752;6.100;2022-11-27T05:51:11;5.80;99.90
13113;DHT22;6622;49.752;6.100;2022-11-27T05:53:37;5.80;99.90
13113;DHT22;6622;49.752;6.100;2022-11-27T05:56:14;5.80;99.90
13113;DHT22;6622;49.752;6.100;2022-11-27T05:58:31;5.80;99.90
13113;DHT22;6622;49.752;6.100;2022-11-27T06:00:57;5.70;99.90
13113;DHT22;6622;49.752;6.100;2022-11-27T06:03:24;5.80;99.90
13113;DHT22;6622;49.752;6.100;2022-11-27T06:05:50;5.90;99.90
13113;DHT22;6622;49.752;6.100;2022-11-27T06:08:17;6.00;99.90
13113;DHT22;6622;49.752;6.100;2022-11-27T06:10:44;6.10;99.90
13113;DHT22;6622;49.752;6.100;2022-11-27T06:13:10;6.00;99.90
13113;DHT22;6622;49.752;6.100;2022-11-27T06:15:37;5.90;99.90
13113;DHT22;6622;49.752;6.100;2022-11-27T06:18:04;5.80;99.90
13113;DHT22;6622;49.752;6.100;2022-11-27T06:20:30;5.80;99.90
13113;DHT22;6622;49.752;6.100;2022-11-27T06:22:57;5.80;99.90
13113;DHT22;6622;49.752;6.100;2022-11-27T06:25:24;5.70;99.90
13113;DHT22;6622;49.752;6.100;2022-11-27T06:27:51;5.70;99.90
13113;DHT22;6622;49.752;6.100;2022-11-27T06:30:17;5.70;99.90
13113;DHT22;6622;49.752;6.100;2022-11-27T06:32:45;5.90;99.90
13113;DHT22;6622;49.752;6.100;2022-11-27T06:35:11;5.80;99.90
13113;DHT22;6622;49.752;6.100;2022-11-27T06:37:38;5.80;99.90
13113;DHT22;6622;49.752;6.100;2022-11-27T06:40:06;5.80;99.90
13113;DHT22;6622;49.752;6.100;2022-11-27T06:42:32;5.80;99.90
13113;DHT22;6622;49.752;6.100;2022-11-27T06:44:59;5.80;99.90
13113;DHT22;6622;49.752;6.100;2022-11-27T06:47:26;5.80;99.90
13113;DHT22;6622;49.752;6.100;2022-11-27T06:49:53;5.70;99.90
13113;DHT22;6622;49.752;6.100;2022-11-27T06:52:20;5.70;99.90
13113;DHT22;6622;49.752;6.100;2022-11-27T06:54:46;5.70;99.90
13113;DHT22;6622;49.752;6.100;2022-11-27T06:57:14;5.60;99.90
13113;DHT22;6622;49.752;6.100;2022-11-27T06:59:40;5.60;99.90
13113;DHT22;6622;49.752;6.100;2022-11-27T07:02:09;5.60;99.90
13113;DHT22;6622;49.752;6.100;2022-11-27T07:04:33;5.60;99.90
13113;DHT22;6622;49.752;6.100;2022-11-27T07:07:00;5.50;99.90
13113;DHT22;6622;49.752;6.100;2022-11-27T07:09:27;5.60;99.90
13113;DHT22;6622;49.752;6.100;2022-11-27T07:11:53;5.60;99.90
13113;DHT22;6622;49.752;6.100;2022-11-27T07:14:20;5.60;99.90
13113;DHT22;6622;49.752;6.100;2022-11-27T07:16:47;5.70;99.90
13113;DHT22;6622;49.752;6.100;2022-11-27T07:19:14;5.80;99.90
13113;DHT22;6622;49.752;6.100;2022-11-27T07:21:41;5.70;99.90
13113;DHT22;6622;49.752;6.100;2022-11-27T07:24:07;5.80;99.90
13113;DHT22;6622;49.752;6.100;2022-11-27T07:26:35;5.80;99.90
13113;DHT22;6622;49.752;6.100;2022-11-27T07:29:01;5.80;99.90
13113;DHT22;6622;49.752;6.100;2022-11-27T07:31:28;5.80;99.90
13113;DHT22;6622;49.752;6.100;2022-11-27T07:33:55;5.90;99.90
13113;DHT22;6622;49.752;6.100;2022-11-27T07:36:23;5.90;99.90
13113;DHT22;6622;49.752;6.100;2022-11-27T07:38:48;5.80;99.90
13113;DHT22;6622;49.752;6.100;2022-11-27T07:41:16;5.90;99.90
13113;DHT22;6622;49.752;6.100;2022-11-27T07:43:43;6.00;99.90
13113;DHT22;6622;49.752;6.100;2022-11-27T07:46:11;6.00;99.90
13113;DHT22;6622;49.752;6.100;2022-11-27T07:48:36;6.00;99.90
13113;DHT22;6622;49.752;6.100;2022-11-27T07:51:09;6.00;99.90
13113;DHT22;6622;49.752;6.100;2022-11-27T07:53:37;5.90;99.90
13113;DHT22;6622;49.752;6.100;2022-11-27T07:56:03;5.90;99.90
13113;DHT22;6622;49.752;6.100;2022-11-27T07:58:29;6.00;99.90
13113;DHT22;6622;49.752;6.100;2022-11-27T08:00:57;6.00;99.90
13113;DHT22;6622;49.752;6.100;2022-11-27T08:03:23;6.00;99.90
13113;DHT22;6622;49.752;6.100;2022-11-27T08:05:50;6.10;99.90
13113;DHT22;6622;49.752;6.100;2022-11-27T08:08:17;6.00;99.90
13113;DHT22;6622;49.752;6.100;2022-11-27T08:10:44;6.00;99.90
13113;DHT22;6622;49.752;6.100;2022-11-27T08:13:11;6.10;99.90
13113;DHT22;6622;49.752;6.100;2022-11-27T08:15:37;6.20;99.90
13113;DHT22;6622;49.752;6.100;2022-11-27T08:18:04;6.10;99.90
13113;DHT22;6622;49.752;6.100;2022-11-27T08:20:30;6.20;99.90
13113;DHT22;6622;49.752;6.100;2022-11-27T08:22:57;6.20;99.90
13113;DHT22;6622;49.752;6.100;2022-11-27T08:25:24;6.20;99.90
13113;DHT22;6622;49.752;6.100;2022-11-27T08:27:50;6.30;99.90
13113;DHT22;6622;49.752;6.100;2022-11-27T08:30:17;6.10;99.90
13113;DHT22;6622;49.752;6.100;2022-11-27T08:32:44;6.10;99.90
13113;DHT22;6622;49.752;6.100;2022-11-27T08:35:10;6.10;99.90
13113;DHT22;6622;49.752;6.100;2022-11-27T08:37:37;6.20;99.90
13113;DHT22;6622;49.752;6.100;2022-11-27T08:40:04;6.20;99.90
13113;DHT22;6622;49.752;6.100;2022-11-27T08:42:30;6.30;99.90
13113;DHT22;6622;49.752;6.100;2022-11-27T08:44:57;6.30;99.90
13113;DHT22;6622;49.752;6.100;2022-11-27T08:47:23;6.30;99.90
13113;DHT22;6622;49.752;6.100;2022-11-27T08:49:51;6.20;99.90
13113;DHT22;6622;49.752;6.100;2022-11-27T08:52:17;6.20;99.90
13113;DHT22;6622;49.752;6.100;2022-11-27T08:54:43;6.20;99.90
13113;DHT22;6622;49.752;6.100;2022-11-27T08:57:10;6.30;99.90
13113;DHT22;6622;49.752;6.100;2022-11-27T08:59:37;6.40;99.90
13113;DHT22;6622;49.752;6.100;2022-11-27T09:02:03;6.50;99.90
13113;DHT22;6622;49.752;6.100;2022-11-27T09:04:30;6.40;99.90
13113;DHT22;6622;49.752;6.100;2022-11-27T09:06:57;6.40;99.90
13113;DHT22;6622;49.752;6.100;2022-11-27T09:09:24;6.40;99.90
13113;DHT22;6622;49.752;6.100;2022-11-27T09:11:52;6.20;99.90
13113;DHT22;6622;49.752;6.100;2022-11-27T09:14:18;6.30;99.90
13113;DHT22;6622;49.752;6.100;2022-11-27T09:16:44;6.20;99.90
13113;DHT22;6622;49.752;6.100;2022-11-27T09:19:11;6.30;99.90
13113;DHT22;6622;49.752;6.100;2022-11-27T09:21:38;6.30;99.90
13113;DHT22;6622;49.752;6.100;2022-11-27T09:24:04;6.30;99.90
13113;DHT22;6622;49.752;6.100;2022-11-27T09:26:31;6.30;99.90
13113;DHT22;6622;49.752;6.100;2022-11-27T09:28:58;6.40;99.90
13113;DHT22;6622;49.752;6.100;2022-11-27T09:31:24;6.40;99.90
13113;DHT22;6622;49.752;6.100;2022-11-27T09:33:51;6.50;99.90
13113;DHT22;6622;49.752;6.100;2022-11-27T09:36:21;6.60;99.90
13113;DHT22;6622;49.752;6.100;2022-11-27T09:38:47;6.70;99.90
13113;DHT22;6622;49.752;6.100;2022-11-27T09:41:40;6.60;99.90
13113;DHT22;6622;49.752;6.100;2022-11-27T09:46:43;6.60;99.90
13113;DHT22;6622;49.752;6.100;2022-11-27T09:49:14;6.60;99.90
13113;DHT22;6622;49.752;6.100;2022-11-27T09:51:42;6.70;99.90
13113;DHT22;6622;49.752;6.100;2022-11-27T09:56:41;6.60;99.90
13113;DHT22;6622;49.752;6.100;2022-11-27T09:59:11;6.60;99.90
13113;DHT22;6622;49.752;6.100;2022-11-27T10:01:35;6.70;99.90
13113;DHT22;6622;49.752;6.100;2022-11-27T10:04:01;6.70;99.90
13113;DHT22;6622;49.752;6.100;2022-11-27T10:06:58;6.70;99.90
13113;DHT22;6622;49.752;6.100;2022-11-27T10:09:44;6.80;99.90
13113;DHT22;6622;49.752;6.100;2022-11-27T10:15:25;7.00;99.90
13113;DHT22;6622;49.752;6.100;2022-11-27T10:17:49;7.00;99.90
13113;DHT22;6622;49.752;6.100;2022-11-27T10:20:24;7.10;99.90
13113;DHT22;6622;49.752;6.100;2022-11-27T10:22:56;6.80;99.90
13113;DHT22;6622;49.752;6.100;2022-11-27T10:25:20;6.80;99.90
13113;DHT22;6622;49.752;6.100;2022-11-27T10:30:34;6.90;99.90
13113;DHT22;6622;49.752;6.100;2022-11-27T10:32:59;6.90;99.90
13113;DHT22;6622;49.752;6.100;2022-11-27T10:35:27;6.90;99.90
13113;DHT22;6622;49.752;6.100;2022-11-27T10:37:57;6.90;99.90
13113;DHT22;6622;49.752;6.100;2022-11-27T10:40:24;6.90;99.90
13113;DHT22;6622;49.752;6.100;2022-11-27T10:45:50;7.00;99.90
13113;DHT22;6622;49.752;6.100;2022-11-27T10:48:15;7.00;99.90
13113;DHT22;6622;49.752;6.100;2022-11-27T10:50:42;7.00;99.90
13113;DHT22;6622;49.752;6.100;2022-11-27T10:53:10;7.10;99.90
13113;DHT22;6622;49.752;6.100;2022-11-27T10:55:55;7.00;99.90
13113;DHT22;6622;49.752;6.100;2022-11-27T11:01:06;7.10;99.90
13113;DHT22;6622;49.752;6.100;2022-11-27T11:03:31;7.20;99.90
13113;DHT22;6622;49.752;6.100;2022-11-27T11:06:01;7.10;99.90
13113;DHT22;6622;49.752;6.100;2022-11-27T11:08:27;7.00;99.90
13113;DHT22;6622;49.752;6.100;2022-11-27T11:10:57;7.10;99.90
13113;DHT22;6622;49.752;6.100;2022-11-27T11:15:59;7.00;99.90
13113;DHT22;6622;49.752;6.100;2022-11-27T11:18:26;7.00;99.90
13113;DHT22;6622;49.752;6.100;2022-11-27T11:20:53;7.10;99.90
13113;DHT22;6622;49.752;6.100;2022-11-27T11:23:23;7.00;99.90
13113;DHT22;6622;49.752;6.100;2022-11-27T11:25:49;7.10;99.90
13113;DHT22;6622;49.752;6.100;2022-11-27T11:28:16;7.10;99.90
13113;DHT22;6622;49.752;6.100;2022-11-27T11:30:50;7.10;99.90
13113;DHT22;6622;49.752;6.100;2022-11-27T11:33:09;7.10;99.90
13113;DHT22;6622;49.752;6.100;2022-11-27T11:35:36;7.10;99.90
13113;DHT22;6622;49.752;6.100;2022-11-27T11:38:03;7.10;99.90
13113;DHT22;6622;49.752;6.100;2022-11-27T11:40:33;7.20;99.90
13113;DHT22;6622;49.752;6.100;2022-11-27T11:43:02;7.30;99.90
13113;DHT22;6622;49.752;6.100;2022-11-27T11:45:29;7.30;99.90
13113;DHT22;6622;49.752;6.100;2022-11-27T11:48:00;7.40;99.90
13113;DHT22;6622;49.752;6.100;2022-11-27T11:50:44;7.40;99.90
13113;DHT22;6622;49.752;6.100;2022-11-27T11:53:15;7.50;99.90
13113;DHT22;6622;49.752;6.100;2022-11-27T11:55:57;7.80;99.90
13113;DHT22;6622;49.752;6.100;2022-11-27T12:04:01;7.90;99.90
13113;DHT22;6622;49.752;6.100;2022-11-27T12:07:26;7.80;99.90
13113;DHT22;6622;49.752;6.100;2022-11-27T12:09:07;7.90;99.90
13113;DHT22;6622;49.752;6.100;2022-11-27T12:14:06;8.00;99.90
13113;DHT22;6622;49.752;6.100;2022-11-27T12:19:20;8.00;99.90
13113;DHT22;6622;49.752;6.100;2022-11-27T12:22:12;8.10;99.90
13113;DHT22;6622;49.752;6.100;2022-11-27T12:24:47;8.00;99.90
13113;DHT22;6622;49.752;6.100;2022-11-27T12:30:19;7.80;99.90
13113;DHT22;6622;49.752;6.100;2022-11-27T12:35:57;7.90;99.90
13113;DHT22;6622;49.752;6.100;2022-11-27T12:38:27;7.70;99.90
13113;DHT22;6622;49.752;6.100;2022-11-27T12:41:12;7.70;99.90
13113;DHT22;6622;49.752;6.100;2022-11-27T12:43:46;7.50;99.90
13113;DHT22;6622;49.752;6.100;2022-11-27T12:46:21;7.50;99.90
13113;DHT22;6622;49.752;6.100;2022-11-27T12:48:51;7.50;99.90
13113;DHT22;6622;49.752;6.100;2022-11-27T12:51:21;7.50;99.90
13113;DHT22;6622;49.752;6.100;2022-11-27T12:54:02;7.60;99.90
13113;DHT22;6622;49.752;6.100;2022-11-27T12:56:39;7.60;99.90
13113;DHT22;6622;49.752;6.100;2022-11-27T13:01:38;7.60;99.90
13113;DHT22;6622;49.752;6.100;2022-11-27T13:07:09;7.60;99.90
13113;DHT22;6622;49.752;6.100;2022-11-27T13:09:45;7.70;99.90
13113;DHT22;6622;49.752;6.100;2022-11-27T13:12:12;7.70;99.90
13113;DHT22;6622;49.752;6.100;2022-11-27T13:14:37;7.70;99.90
13113;DHT22;6622;49.752;6.100;2022-11-27T13:17:04;7.70;99.90
13113;DHT22;6622;49.752;6.100;2022-11-27T13:19:37;7.80;99.90
13113;DHT22;6622;49.752;6.100;2022-11-27T13:22:02;7.80;99.90
13113;DHT22;6622;49.752;6.100;2022-11-27T13:24:29;7.80;99.90
13113;DHT22;6622;49.752;6.100;2022-11-27T13:27:09;7.80;99.90
13113;DHT22;6622;49.752;6.100;2022-11-27T13:30:05;7.70;99.90
13113;DHT22;6622;49.752;6.100;2022-11-27T13:32:32;7.80;99.90
13113;DHT22;6622;49.752;6.100;2022-11-27T13:34:59;7.80;99.90
13113;DHT22;6622;49.752;6.100;2022-11-27T13:37:29;7.90;99.90
13113;DHT22;6622;49.752;6.100;2022-11-27T13:40:22;7.90;99.90
13113;DHT22;6622;49.752;6.100;2022-11-27T13:42:51;8.00;99.90
13113;DHT22;6622;49.752;6.100;2022-11-27T13:45:18;8.00;99.90
13113;DHT22;6622;49.752;6.100;2022-11-27T13:47:44;7.90;99.90
13113;DHT22;6622;49.752;6.100;2022-11-27T13:50:14;7.80;99.90
13113;DHT22;6622;49.752;6.100;2022-11-27T13:52:47;7.70;99.90
13113;DHT22;6622;49.752;6.100;2022-11-27T13:55:06;7.70;99.90
13113;DHT22;6622;49.752;6.100;2022-11-27T13:57:33;7.80;99.90
13113;DHT22;6622;49.752;6.100;2022-11-27T14:00:00;7.80;99.90
13113;DHT22;6622;49.752;6.100;2022-11-27T14:02:45;7.70;99.90
13113;DHT22;6622;49.752;6.100;2022-11-27T14:05:08;7.70;99.90
13113;DHT22;6622;49.752;6.100;2022-11-27T14:07:45;7.70;99.90
13113;DHT22;6622;49.752;6.100;2022-11-27T14:10:17;7.70;99.90
13113;DHT22;6622;49.752;6.100;2022-11-27T14:12:50;7.60;99.90
13113;DHT22;6622;49.752;6.100;2022-11-27T14:17:45;7.50;99.90
13113;DHT22;6622;49.752;6.100;2022-11-27T14:25:29;7.80;99.90
13113;DHT22;6622;49.752;6.100;2022-11-27T14:28:14;7.80;99.90
13113;DHT22;6622;49.752;6.100;2022-11-27T14:30:50;7.70;99.90
13113;DHT22;6622;49.752;6.100;2022-11-27T14:33:19;7.80;99.90
13113;DHT22;6622;49.752;6.100;2022-11-27T14:35:52;7.70;99.90
13113;DHT22;6622;49.752;6.100;2022-11-27T14:38:17;7.70;99.90
13113;DHT22;6622;49.752;6.100;2022-11-27T14:40:44;7.70;99.90
13113;DHT22;6622;49.752;6.100;2022-11-27T14:43:21;7.60;99.90
13113;DHT22;6622;49.752;6.100;2022-11-27T14:45:47;7.60;99.90
13113;DHT22;6622;49.752;6.100;2022-11-27T14:48:22;7.60;99.90
13113;DHT22;6622;49.752;6.100;2022-11-27T14:50:46;7.50;99.90
13113;DHT22;6622;49.752;6.100;2022-11-27T14:53:12;7.50;99.90
13113;DHT22;6622;49.752;6.100;2022-11-27T14:55:39;7.40;99.90
13113;DHT22;6622;49.752;6.100;2022-11-27T14:58:06;7.50;99.90
13113;DHT22;6622;49.752;6.100;2022-11-27T15:00:33;7.50;99.90
13113;DHT22;6622;49.752;6.100;2022-11-27T15:03:08;7.50;99.90
13113;DHT22;6622;49.752;6.100;2022-11-27T15:05:32;7.50;99.90
13113;DHT22;6622;49.752;6.100;2022-11-27T15:07:59;7.60;99.90
13113;DHT22;6622;49.752;6.100;2022-11-27T15:10:36;7.60;99.90
13113;DHT22;6622;49.752;6.100;2022-11-27T15:12:58;7.50;99.90
13113;DHT22;6622;49.752;6.100;2022-11-27T15:15:26;7.50;99.90
13113;DHT22;6622;49.752;6.100;2022-11-27T15:17:56;7.50;99.90
13113;DHT22;6622;49.752;6.100;2022-11-27T15:20:38;7.40;99.90
13113;DHT22;6622;49.752;6.100;2022-11-27T15:23:04;7.40;99.90
13113;DHT22;6622;49.752;6.100;2022-11-27T15:28:00;7.30;99.90
13113;DHT22;6622;49.752;6.100;2022-11-27T15:30:27;7.40;99.90
13113;DHT22;6622;49.752;6.100;2022-11-27T15:32:54;7.40;99.90
13113;DHT22;6622;49.752;6.100;2022-11-27T15:35:30;7.40;99.90
13113;DHT22;6622;49.752;6.100;2022-11-27T15:37:56;7.40;99.90
13113;DHT22;6622;49.752;6.100;2022-11-27T15:40:26;7.50;99.90
13113;DHT22;6622;49.752;6.100;2022-11-27T15:42:49;7.50;99.90
13113;DHT22;6622;49.752;6.100;2022-11-27T15:45:16;7.50;99.90
13113;DHT22;6622;49.752;6.100;2022-11-27T15:47:42;7.50;99.90
13113;DHT22;6622;49.752;6.100;2022-11-27T15:50:13;7.30;99.90
13113;DHT22;6622;49.752;6.100;2022-11-27T15:52:39;7.30;99.90
13113;DHT22;6622;49.752;6.100;2022-11-27T15:55:06;7.30;99.90
13113;DHT22;6622;49.752;6.100;2022-11-27T15:57:32;7.30;99.90
13113;DHT22;6622;49.752;6.100;2022-11-27T15:59:59;7.30;99.90
13113;DHT22;6622;49.752;6.100;2022-11-27T16:02:26;7.40;99.90
13113;DHT22;6622;49.752;6.100;2022-11-27T16:04:53;7.40;99.90
13113;DHT22;6622;49.752;6.100;2022-11-27T16:07:19;7.40;99.90
13113;DHT22;6622;49.752;6.100;2022-11-27T16:09:47;7.50;99.90
13113;DHT22;6622;49.752;6.100;2022-11-27T16:12:13;7.50;99.90
13113;DHT22;6622;49.752;6.100;2022-11-27T16:14:41;7.50;99.90
13113;DHT22;6622;49.752;6.100;2022-11-27T16:17:07;7.50;99.90
13113;DHT22;6622;49.752;6.100;2022-11-27T16:19:34;7.50;99.90
13113;DHT22;6622;49.752;6.100;2022-11-27T16:22:01;7.60;99.90
13113;DHT22;6622;49.752;6.100;2022-11-27T16:24:28;7.40;99.90
13113;DHT22;6622;49.752;6.100;2022-11-27T16:26:55;7.40;99.90
13113;DHT22;6622;49.752;6.100;2022-11-27T16:29:21;7.40;99.90
13113;DHT22;6622;49.752;6.100;2022-11-27T16:31:48;7.40;99.90
13113;DHT22;6622;49.752;6.100;2022-11-27T16:34:15;7.40;99.90
13113;DHT22;6622;49.752;6.100;2022-11-27T16:36:41;7.40;99.90
13113;DHT22;6622;49.752;6.100;2022-11-27T16:39:11;7.50;99.90
13113;DHT22;6622;49.752;6.100;2022-11-27T16:41:37;7.40;99.90
13113;DHT22;6622;49.752;6.100;2022-11-27T16:44:10;7.30;99.90
13113;DHT22;6622;49.752;6.100;2022-11-27T16:46:37;7.30;99.90
13113;DHT22;6622;49.752;6.100;2022-11-27T16:49:03;7.30;99.90
13113;DHT22;6622;49.752;6.100;2022-11-27T16:51:30;7.20;99.90
13113;DHT22;6622;49.752;6.100;2022-11-27T16:54:00;7.20;99.90
13113;DHT22;6622;49.752;6.100;2022-11-27T16:56:26;7.30;99.90
13113;DHT22;6622;49.752;6.100;2022-11-27T16:58:52;7.20;99.90
13113;DHT22;6622;49.752;6.100;2022-11-27T17:01:20;7.20;99.90
13113;DHT22;6622;49.752;6.100;2022-11-27T17:03:45;7.20;99.90
13113;DHT22;6622;49.752;6.100;2022-11-27T17:06:16;7.20;99.90
13113;DHT22;6622;49.752;6.100;2022-11-27T17:08:38;7.20;99.90
13113;DHT22;6622;49.752;6.100;2022-11-27T17:13:40;7.10;99.90
13113;DHT22;6622;49.752;6.100;2022-11-27T17:16:07;7.10;99.90
13113;DHT22;6622;49.752;6.100;2022-11-27T17:18:40;7.00;99.90